Time;durP1;ratioP1;P1;durP2;ratioP2;P2;SDS_P1;SDS_P2;PMS_P1;PMS_P2;Temp;Humidity;BMP_temperature;BMP_pressure;BME280_temperature;BME280_humidity;BME280_pressure;Samples;Min_cycle;Max_cycle;Signal;HPM_P1;HPM_P2
2022/10/23 00:01:41;;;;;;;7.68;5.35;;;10.80;99.90;;;;;;5075157;28;20279;-84
2022/10/23 00:04:13;;;;;;;12.23;5.15;;;10.70;99.90;;;;;;5085314;28;20111;-85
2022/10/23 00:06:39;;;;;;;10.60;5.03;;;10.70;99.90;;;;;;5107356;27;20646;-85
2022/10/23 00:09:07;;;;;;;13.20;5.43;;;10.70;99.90;;;;;;5087339;28;20036;-84
2022/10/23 00:11:33;;;;;;;11.32;5.35;;;10.70;99.90;;;;;;5056628;28;20029;-85
2022/10/23 00:14:02;;;;;;;13.25;5.40;;;10.70;99.90;;;;;;5060211;28;20012;-85
2022/10/23 00:16:28;;;;;;;12.15;5.80;;;10.70;99.90;;;;;;5060912;28;20033;-85
2022/10/23 00:18:54;;;;;;;16.80;5.10;;;10.80;99.90;;;;;;5076650;28;20690;-85
2022/10/23 00:21:20;;;;;;;12.23;4.82;;;10.80;99.90;;;;;;5065030;28;20024;-85
2022/10/23 00:23:46;;;;;;;9.05;5.20;;;10.70;99.90;;;;;;5075594;28;20528;-85
2022/10/23 00:26:14;;;;;;;13.52;4.95;;;10.70;99.90;;;;;;5067127;28;20115;-85
2022/10/23 00:28:42;;;;;;;10.90;5.55;;;10.80;99.90;;;;;;5058319;28;20036;-85
2022/10/23 00:31:08;;;;;;;8.73;5.32;;;10.80;99.90;;;;;;5060130;28;20108;-85
2022/10/23 00:33:33;;;;;;;18.73;5.97;;;10.90;99.90;;;;;;5077082;28;20472;-85
2022/10/23 00:35:59;;;;;;;8.68;5.85;;;11.00;99.90;;;;;;5060457;28;20012;-85
2022/10/23 00:38:25;;;;;;;12.80;5.50;;;11.10;99.90;;;;;;5064845;28;20028;-85
2022/10/23 00:40:51;;;;;;;8.88;5.20;;;11.10;99.90;;;;;;5076610;28;20088;-85
2022/10/23 00:43:19;;;;;;;15.63;5.82;;;11.10;99.90;;;;;;5058173;28;20493;-85
2022/10/23 00:45:45;;;;;;;13.50;5.20;;;11.00;99.90;;;;;;5076057;28;20025;-85
2022/10/23 00:48:11;;;;;;;16.30;5.97;;;11.00;99.90;;;;;;5076382;28;20035;-85
2022/10/23 00:50:37;;;;;;;13.52;6.38;;;11.00;99.90;;;;;;5076810;28;20041;-85
2022/10/23 00:53:03;;;;;;;8.38;4.95;;;11.00;99.90;;;;;;5077553;28;20073;-85
2022/10/23 00:55:31;;;;;;;17.73;6.85;;;11.00;99.90;;;;;;5080724;28;20021;-84
2022/10/23 00:57:56;;;;;;;17.50;6.13;;;11.10;99.90;;;;;;5053318;28;20032;-85
2022/10/23 01:00:39;;;;;;;10.85;5.05;;;11.20;99.90;;;;;;5065623;28;20028;-85
2022/10/23 01:03:26;;;;;;;11.43;5.13;;;11.30;99.90;;;;;;5064769;28;20027;-85
2022/10/23 01:06:08;;;;;;;8.55;4.40;;;11.40;99.90;;;;;;5057033;28;20036;-85
2022/10/23 01:08:42;;;;;;;10.02;4.43;;;11.40;99.90;;;;;;5077561;28;20114;-84
2022/10/23 01:11:19;;;;;;;7.13;5.05;;;11.40;99.90;;;;;;5053496;28;20837;-85
2022/10/23 01:14:01;;;;;;;12.10;4.63;;;11.40;99.90;;;;;;5082637;28;20045;-86
2022/10/23 01:16:33;;;;;;;9.43;5.30;;;11.40;99.90;;;;;;5053052;28;20447;-85
2022/10/23 01:19:37;;;;;;;11.18;5.55;;;11.40;99.90;;;;;;5056053;28;20028;-85
2022/10/23 01:22:21;;;;;;;8.23;4.90;;;11.40;99.90;;;;;;5054131;28;20028;-84
2022/10/23 01:24:55;;;;;;;12.82;4.93;;;11.40;99.90;;;;;;5079389;28;20024;-84
2022/10/23 01:27:26;;;;;;;8.50;5.28;;;11.40;99.90;;;;;;5077664;28;20036;-85
2022/10/23 01:30:04;;;;;;;10.43;5.32;;;11.30;99.90;;;;;;5072636;28;20055;-85
2022/10/23 01:32:44;;;;;;;10.73;4.50;;;11.40;99.90;;;;;;5078577;28;20169;-85
2022/10/23 01:35:13;;;;;;;9.05;5.32;;;11.40;99.90;;;;;;5076694;28;20016;-85
2022/10/23 01:37:46;;;;;;;8.25;4.82;;;11.40;99.90;;;;;;5061174;28;20028;-85
2022/10/23 01:40:36;;;;;;;10.98;5.18;;;11.30;99.90;;;;;;5062507;28;20024;-84
2022/10/23 01:43:11;;;;;;;13.50;5.82;;;11.30;99.90;;;;;;5051929;28;20125;-84
2022/10/23 01:45:52;;;;;;;16.63;5.72;;;11.20;99.90;;;;;;5070155;28;20048;-85
2022/10/23 01:48:27;;;;;;;9.38;5.43;;;11.10;99.90;;;;;;5061430;28;20029;-85
2022/10/23 01:50:56;;;;;;;12.20;5.07;;;11.20;99.90;;;;;;5074634;28;20028;-85
2022/10/23 01:53:25;;;;;;;9.32;5.25;;;11.00;99.90;;;;;;5079823;28;20025;-85
2022/10/23 01:55:52;;;;;;;10.40;4.63;;;10.90;99.90;;;;;;5079682;28;20044;-85
2022/10/23 01:58:24;;;;;;;10.20;5.38;;;10.90;99.90;;;;;;5072676;28;20024;-85
2022/10/23 02:00:51;;;;;;;14.15;5.43;;;10.80;99.90;;;;;;5086500;28;20039;-85
2022/10/23 02:03:18;;;;;;;10.25;5.32;;;10.80;99.90;;;;;;5085346;28;20034;-85
2022/10/23 02:05:44;;;;;;;12.93;6.00;;;10.80;99.90;;;;;;5065989;28;20031;-84
2022/10/23 02:08:10;;;;;;;16.48;5.40;;;10.70;99.90;;;;;;5086861;28;20032;-85
2022/10/23 02:10:47;;;;;;;12.27;6.97;;;10.70;99.90;;;;;;5083073;28;20035;-84
2022/10/23 02:13:32;;;;;;;14.65;6.38;;;10.70;99.90;;;;;;5082170;28;20021;-85
2022/10/23 02:16:04;;;;;;;11.77;7.93;;;10.60;99.90;;;;;;5057873;28;20031;-85
2022/10/23 02:18:45;;;;;;;12.40;7.20;;;10.60;99.90;;;;;;5087987;28;20116;-85
2022/10/23 02:21:33;;;;;;;14.40;6.20;;;10.50;99.90;;;;;;5058502;28;20025;-85
2022/10/23 02:24:10;;;;;;;8.27;5.53;;;10.50;99.90;;;;;;5058813;28;20050;-85
2022/10/23 02:26:54;;;;;;;10.63;5.88;;;10.50;99.90;;;;;;5069922;28;20040;-85
2022/10/23 02:29:30;;;;;;;11.05;7.10;;;10.50;99.90;;;;;;5063645;28;20076;-85
2022/10/23 02:31:58;;;;;;;16.67;7.35;;;10.50;99.90;;;;;;5068747;28;20046;-85
2022/10/23 02:34:24;;;;;;;18.17;7.60;;;10.50;99.90;;;;;;5065793;28;20020;-85
2022/10/23 02:36:50;;;;;;;22.52;8.45;;;10.50;99.90;;;;;;5083992;28;20028;-84
2022/10/23 02:39:21;;;;;;;13.00;7.45;;;10.50;99.90;;;;;;5082993;28;20027;-85
2022/10/23 02:41:55;;;;;;;16.85;7.97;;;10.50;99.90;;;;;;5086253;28;20064;-85
2022/10/23 02:44:37;;;;;;;14.20;7.18;;;10.60;99.90;;;;;;5084110;28;20031;-85
2022/10/23 02:47:08;;;;;;;;;;;10.60;99.90;;;;;;5080137;28;20429;-85
2022/10/23 02:49:58;;;;;;;14.20;5.90;;;10.60;99.90;;;;;;5084663;28;19908;-85
2022/10/23 02:52:52;;;;;;;14.23;6.22;;;10.60;99.90;;;;;;5087742;28;20028;-85
2022/10/23 02:55:29;;;;;;;14.57;6.90;;;10.70;99.90;;;;;;5068003;28;20032;-85
2022/10/23 02:58:09;;;;;;;17.80;7.20;;;10.70;99.90;;;;;;5077032;28;20107;-85
2022/10/23 03:01:02;;;;;;;7.22;5.80;;;10.80;99.90;;;;;;5067725;28;20028;-84
2022/10/23 03:03:36;;;;;;;9.75;4.63;;;10.80;99.90;;;;;;5068056;28;20028;-85
2022/10/23 03:06:04;;;;;;;13.00;4.45;;;10.80;99.90;;;;;;5080309;28;20028;-85
2022/10/23 03:08:40;;;;;;;9.88;4.55;;;10.90;99.90;;;;;;5082689;28;20153;-85
2022/10/23 03:11:06;;;;;;;14.43;4.30;;;10.80;99.90;;;;;;5070306;28;20040;-85
2022/10/23 03:13:31;;;;;;;7.70;4.18;;;10.90;99.90;;;;;;5083257;28;20024;-85
2022/10/23 03:15:57;;;;;;;11.02;4.60;;;10.90;99.90;;;;;;5063042;28;20467;-85
2022/10/23 03:18:25;;;;;;;11.77;4.22;;;10.90;99.90;;;;;;5100491;27;20477;-85
2022/10/23 03:20:51;;;;;;;7.13;4.18;;;10.90;99.90;;;;;;5078585;28;20039;-85
2022/10/23 03:23:21;;;;;;;10.02;3.78;;;10.90;99.90;;;;;;5083593;28;20474;-85
2022/10/23 03:25:47;;;;;;;11.38;4.03;;;10.90;99.90;;;;;;5080503;28;20035;-84
2022/10/23 03:28:26;;;;;;;7.95;4.40;;;10.90;99.90;;;;;;5055786;28;20033;-85
2022/10/23 03:30:52;;;;;;;15.00;4.90;;;10.90;99.90;;;;;;5085525;28;20029;-85
2022/10/23 03:33:18;;;;;;;7.38;3.67;;;10.80;99.90;;;;;;5055711;28;20017;-85
2022/10/23 03:35:43;;;;;;;4.60;3.47;;;10.80;99.90;;;;;;5085718;28;20024;-85
2022/10/23 03:38:12;;;;;;;8.98;3.97;;;10.60;99.90;;;;;;5074842;28;20048;-85
2022/10/23 03:40:38;;;;;;;7.07;3.83;;;10.60;99.90;;;;;;5086652;28;20470;-85
2022/10/23 03:43:04;;;;;;;14.02;3.95;;;10.60;99.90;;;;;;5060427;28;20025;-85
2022/10/23 03:45:31;;;;;;;12.63;4.50;;;10.60;99.90;;;;;;5070533;28;20120;-85
2022/10/23 03:47:57;;;;;;;7.22;4.68;;;10.70;99.90;;;;;;5079326;28;20585;-85
2022/10/23 03:50:23;;;;;;;7.20;4.43;;;10.70;99.90;;;;;;5071065;28;20087;-85
2022/10/23 03:52:49;;;;;;;11.70;5.00;;;10.70;99.90;;;;;;5071797;28;20769;-84
2022/10/23 03:55:15;;;;;;;10.38;6.30;;;10.80;99.90;;;;;;5064387;28;20029;-85
2022/10/23 03:57:40;;;;;;;9.57;5.68;;;10.80;99.90;;;;;;5088703;28;20059;-85
2022/10/23 04:00:07;;;;;;;9.10;6.07;;;10.70;99.90;;;;;;5075494;28;20356;-85
2022/10/23 04:02:42;;;;;;;12.63;6.22;;;10.70;99.90;;;;;;5079683;28;20025;-85
2022/10/23 04:05:08;;;;;;;6.72;4.55;;;10.80;99.90;;;;;;5061245;28;20114;-85
2022/10/23 04:07:34;;;;;;;9.82;4.75;;;10.90;99.90;;;;;;5063687;28;20111;-85
2022/10/23 04:10:02;;;;;;;12.57;4.35;;;10.90;99.90;;;;;;5062175;28;20153;-85
2022/10/23 04:12:28;;;;;;;11.50;4.80;;;11.00;99.90;;;;;;5057048;28;20024;-84
2022/10/23 04:14:54;;;;;;;7.18;3.90;;;11.00;99.90;;;;;;5079441;28;20026;-85
2022/10/23 04:17:20;;;;;;;7.07;3.03;;;11.10;99.90;;;;;;5073882;28;20024;-84
2022/10/23 04:19:48;;;;;;;4.60;2.90;;;11.20;99.90;;;;;;5077899;28;20163;-85
2022/10/23 04:22:14;;;;;;;5.82;3.40;;;11.20;99.90;;;;;;5061251;28;20107;-85
2022/10/23 04:24:44;;;;;;;7.50;3.20;;;11.10;99.90;;;;;;5080698;28;20032;-84
2022/10/23 04:27:12;;;;;;;6.88;4.00;;;11.10;99.90;;;;;;5062915;28;20020;-85
2022/10/23 04:29:50;;;;;;;9.32;3.45;;;11.10;99.90;;;;;;5055718;28;20441;-85
2022/10/23 04:32:16;;;;;;;6.15;3.08;;;11.10;99.90;;;;;;5063107;28;20032;-85
2022/10/23 04:34:43;;;;;;;5.25;3.40;;;11.10;99.90;;;;;;5058814;28;20748;-85
2022/10/23 04:37:08;;;;;;;5.88;3.33;;;11.10;99.90;;;;;;5063682;28;20028;-85
2022/10/23 04:39:34;;;;;;;7.30;3.05;;;11.00;99.90;;;;;;5071911;28;20043;-85
2022/10/23 04:42:00;;;;;;;6.22;3.47;;;10.90;99.90;;;;;;5069365;28;20031;-85
2022/10/23 04:44:35;;;;;;;7.18;4.32;;;10.80;99.90;;;;;;5061502;28;20398;-84
2022/10/23 04:47:01;;;;;;;6.10;3.95;;;10.80;99.90;;;;;;5072639;28;20027;-85
2022/10/23 04:49:27;;;;;;;7.30;3.85;;;10.70;99.90;;;;;;5061691;28;20060;-84
2022/10/23 04:52:10;;;;;;;15.57;4.88;;;10.70;99.90;;;;;;5069339;28;20024;-85
2022/10/23 04:54:37;;;;;;;7.25;3.60;;;10.70;99.90;;;;;;5078874;28;20102;-85
2022/10/23 04:57:29;;;;;;;5.57;3.75;;;10.70;99.90;;;;;;5082135;28;20023;-85
2022/10/23 05:00:08;;;;;;;6.82;3.83;;;10.80;99.90;;;;;;5055190;28;20073;-85
2022/10/23 05:02:40;;;;;;;13.35;4.50;;;10.70;99.90;;;;;;5061778;28;20025;-85
2022/10/23 05:09:07;;;;;;;9.02;3.40;;;10.70;99.90;;;;;;5050083;28;20025;-84
2022/10/23 05:11:53;;;;;;;14.98;3.55;;;10.70;99.90;;;;;;5045058;28;20078;-85
2022/10/23 05:14:19;;;;;;;8.57;3.60;;;10.70;99.90;;;;;;5032160;28;20041;-85
2022/10/23 05:16:56;;;;;;;8.25;3.58;;;10.60;99.90;;;;;;5058567;28;20060;-85
2022/10/23 05:19:26;;;;;;;7.88;3.40;;;10.50;99.90;;;;;;5054342;28;20024;-85
2022/10/23 05:21:54;;;;;;;8.73;3.38;;;10.60;99.90;;;;;;5067265;28;20534;-85
2022/10/23 05:24:25;;;;;;;5.28;3.10;;;10.50;99.90;;;;;;5067019;28;20475;-85
2022/10/23 05:26:56;;;;;;;5.68;3.45;;;10.60;99.90;;;;;;5056734;28;20033;-85
2022/10/23 05:29:22;;;;;;;9.32;3.65;;;10.60;99.90;;;;;;5067282;28;20102;-85
2022/10/23 05:31:53;;;;;;;9.10;3.65;;;10.60;99.90;;;;;;5078576;28;20020;-85
2022/10/23 05:34:22;;;;;;;10.60;3.65;;;10.60;99.90;;;;;;5070942;28;20120;-84
2022/10/23 05:36:48;;;;;;;8.80;3.97;;;10.60;99.90;;;;;;5064411;28;20062;-85
2022/10/23 05:39:14;;;;;;;4.57;3.60;;;10.70;99.90;;;;;;5054824;28;20368;-85
2022/10/23 05:41:40;;;;;;;15.13;3.80;;;10.70;99.90;;;;;;5085020;28;20530;-85
2022/10/23 05:44:06;;;;;;;5.15;3.10;;;10.80;99.90;;;;;;5048325;28;20060;-84
2022/10/23 05:46:50;;;;;;;6.70;3.85;;;11.00;99.90;;;;;;5059032;28;20025;-85
2022/10/23 05:49:37;;;;;;;11.00;3.92;;;11.00;99.90;;;;;;5068521;28;20047;-85
2022/10/23 05:52:21;;;;;;;5.10;3.03;;;11.00;99.90;;;;;;5072206;28;20058;-85
2022/10/23 05:55:13;;;;;;;;;;;11.00;99.90;;;;;;5065519;28;20020;-85
2022/10/23 05:57:56;;;;;;;5.57;3.40;;;10.90;99.90;;;;;;5054375;28;20007;-85
2022/10/23 06:00:40;;;;;;;6.60;3.65;;;10.90;99.90;;;;;;5069189;28;20094;-87
2022/10/23 06:03:25;;;;;;;9.80;3.50;;;10.80;99.90;;;;;;5066345;28;20028;-88
2022/10/23 06:05:51;;;;;;;12.30;4.10;;;10.80;99.90;;;;;;5059619;28;20043;-87
2022/10/23 06:08:23;;;;;;;9.38;3.47;;;10.80;99.90;;;;;;5063146;28;20592;-88
2022/10/23 06:10:50;;;;;;;10.38;3.53;;;10.80;99.90;;;;;;5063649;28;20035;-88
2022/10/23 06:13:15;;;;;;;7.05;3.25;;;10.90;99.90;;;;;;5054074;28;20367;-88
2022/10/23 06:15:42;;;;;;;8.63;3.28;;;10.90;99.90;;;;;;5058607;28;20032;-88
2022/10/23 06:18:13;;;;;;;6.35;3.03;;;11.10;99.90;;;;;;5050652;28;20115;-87
2022/10/23 06:20:50;;;;;;;5.43;2.90;;;11.20;99.90;;;;;;5070994;28;20038;-88
2022/10/23 06:23:23;;;;;;;5.70;2.20;;;11.30;99.90;;;;;;5057422;28;20474;-88
2022/10/23 06:26:21;;;;;;;4.35;2.40;;;11.40;99.90;;;;;;5059523;28;20024;-89
2022/10/23 06:28:54;;;;;;;2.97;1.88;;;11.40;99.90;;;;;;5070124;28;20051;-87
2022/10/23 06:31:25;;;;;;;4.35;2.08;;;11.40;99.90;;;;;;5055624;28;20361;-88
2022/10/23 06:33:52;;;;;;;2.63;1.88;;;11.40;99.90;;;;;;5056463;28;21526;-88
2022/10/23 06:36:18;;;;;;;6.63;1.95;;;11.40;99.90;;;;;;5073581;28;20052;-88
2022/10/23 06:38:44;;;;;;;6.65;2.25;;;11.40;99.90;;;;;;5053666;28;20017;-89
2022/10/23 06:41:16;;;;;;;10.65;2.47;;;11.40;99.90;;;;;;5063867;28;20032;-88
2022/10/23 06:43:47;;;;;;;6.18;2.35;;;11.50;99.90;;;;;;5081686;28;20139;-88
2022/10/23 06:46:19;;;;;;;4.80;1.77;;;11.50;99.90;;;;;;5069786;28;20066;-88
2022/10/23 06:49:03;;;;;;;4.53;1.88;;;11.50;99.90;;;;;;5082890;28;20055;-88
2022/10/23 06:51:32;;;;;;;5.10;2.15;;;11.60;99.90;;;;;;5059550;28;20021;-87
2022/10/23 06:53:58;;;;;;;5.57;2.08;;;11.60;99.90;;;;;;5054510;28;20024;-89
2022/10/23 06:56:50;;;;;;;2.65;1.60;;;11.70;99.90;;;;;;5077615;28;20025;-88
2022/10/23 06:59:20;;;;;;;3.53;1.50;;;11.70;99.90;;;;;;5057413;28;20031;-87
2022/10/23 07:01:49;;;;;;;6.25;1.73;;;11.80;99.90;;;;;;5078173;28;20029;-88
2022/10/23 07:04:15;;;;;;;3.05;1.67;;;11.80;99.90;;;;;;5055353;28;20091;-88
2022/10/23 07:06:42;;;;;;;5.38;1.98;;;11.90;99.90;;;;;;5084697;28;20031;-88
2022/10/23 07:09:08;;;;;;;2.97;1.70;;;12.00;99.90;;;;;;5064046;28;20040;-89
2022/10/23 07:11:52;;;;;;;5.40;1.85;;;12.10;99.90;;;;;;5078277;28;20060;-87
2022/10/23 07:14:22;;;;;;;4.55;1.92;;;12.10;99.90;;;;;;5057679;28;20539;-88
2022/10/23 07:16:48;;;;;;;4.53;1.70;;;12.20;99.90;;;;;;5071675;28;20027;-88
2022/10/23 07:19:14;;;;;;;9.27;1.95;;;12.20;99.90;;;;;;5060233;28;20020;-88
2022/10/23 07:21:54;;;;;;;5.82;1.30;;;12.30;99.90;;;;;;5073642;28;20081;-88
2022/10/23 07:24:39;;;;;;;1.75;1.30;;;12.40;99.90;;;;;;5085532;28;20046;-88
2022/10/23 07:27:16;;;;;;;4.65;1.50;;;12.50;99.90;;;;;;5074265;28;20029;-86
2022/10/23 07:29:42;;;;;;;4.18;1.55;;;12.60;99.90;;;;;;5087818;28;20051;-87
2022/10/23 07:32:08;;;;;;;5.57;2.28;;;12.90;99.90;;;;;;5060130;28;20024;-88
2022/10/23 07:35:07;;;;;;;4.43;2.10;;;13.00;99.90;;;;;;5079071;28;20387;-88
2022/10/23 07:37:34;;;;;;;3.92;1.88;;;13.10;99.90;;;;;;5077138;28;20025;-87
2022/10/23 07:40:03;;;;;;;3.47;1.77;;;13.20;99.90;;;;;;5061871;28;20044;-87
2022/10/23 07:42:33;;;;;;;4.18;1.50;;;13.20;99.90;;;;;;5063279;28;20024;-87
2022/10/23 07:44:59;;;;;;;2.67;1.52;;;13.30;99.90;;;;;;5062237;28;20659;-87
2022/10/23 07:47:24;;;;;;;3.78;1.08;;;13.30;99.90;;;;;;5066432;28;20028;-88
2022/10/23 07:50:10;;;;;;;2.30;1.17;;;13.40;99.90;;;;;;5078563;28;20037;-87
2022/10/23 07:52:36;;;;;;;2.22;1.10;;;13.60;99.90;;;;;;5056326;28;20052;-87
2022/10/23 07:55:08;;;;;;;2.47;1.30;;;13.80;99.90;;;;;;5080347;28;20546;-87
2022/10/23 07:57:37;;;;;;;2.78;1.00;;;13.90;99.90;;;;;;5059323;28;20407;-87
2022/10/23 08:00:15;;;;;;;2.17;1.52;;;14.10;99.90;;;;;;5054324;28;20043;-88
2022/10/23 08:02:51;;;;;;;4.70;1.73;;;14.20;99.90;;;;;;5080292;28;20035;-88
2022/10/23 08:09:06;;;;;;;4.75;1.70;;;14.40;99.90;;;;;;5074218;28;20078;-87
2022/10/23 08:11:34;;;;;;;4.05;1.48;;;14.50;99.90;;;;;;5070096;28;20029;-87
2022/10/23 08:14:04;;;;;;;5.10;1.08;;;14.50;99.90;;;;;;5068304;28;20029;-88
2022/10/23 08:16:35;;;;;;;2.88;1.30;;;14.60;99.90;;;;;;5070904;28;20086;-86
2022/10/23 08:19:21;;;;;;;1.27;0.80;;;14.80;99.90;;;;;;5077598;28;20020;-88
2022/10/23 08:21:53;;;;;;;2.88;1.33;;;15.00;99.90;;;;;;5059765;28;20033;-87
2022/10/23 08:24:20;;;;;;;4.68;1.10;;;15.10;99.90;;;;;;5063297;28;20043;-87
2022/10/23 08:26:49;;;;;;;3.25;0.80;;;15.20;99.90;;;;;;5057054;28;20797;-87
2022/10/23 08:29:16;;;;;;;2.15;0.80;;;15.30;99.90;;;;;;5063642;28;20391;-88
2022/10/23 08:31:41;;;;;;;2.22;1.00;;;15.40;99.90;;;;;;5076163;28;20032;-88
2022/10/23 08:34:17;;;;;;;9.02;1.83;;;15.50;99.90;;;;;;5065716;28;20016;-87
2022/10/23 08:36:46;;;;;;;8.52;2.33;;;15.50;99.90;;;;;;5074282;28;20055;-88
2022/10/23 08:39:12;;;;;;;5.55;2.38;;;15.50;99.90;;;;;;5075218;28;20047;-87
2022/10/23 08:42:33;;;;;;;5.18;1.63;;;15.40;99.90;;;;;;5060333;28;20055;-87
2022/10/23 08:45:06;;;;;;;2.22;1.33;;;15.40;99.90;;;;;;5058735;28;20119;-86
2022/10/23 08:47:43;;;;;;;3.42;1.02;;;15.50;99.90;;;;;;5072201;28;20115;-86
2022/10/23 08:50:20;;;;;;;5.68;1.08;;;15.50;99.90;;;;;;5083718;28;20036;-87
2022/10/23 08:53:11;;;;;;;4.15;1.05;;;15.50;99.90;;;;;;5075611;28;20025;-86
2022/10/23 08:55:43;;;;;;;2.40;0.93;;;15.60;99.90;;;;;;5040586;28;20607;-86
2022/10/23 08:58:15;;;;;;;1.27;0.70;;;15.50;99.90;;;;;;5062175;28;20445;-87
2022/10/23 09:00:42;;;;;;;3.95;0.82;;;15.50;99.90;;;;;;5064662;28;20039;-88
2022/10/23 09:03:10;;;;;;;1.85;0.90;;;15.50;99.90;;;;;;5061536;28;20024;-87
2022/10/23 09:05:44;;;;;;;4.20;1.10;;;15.50;99.90;;;;;;5058453;28;20434;-87
2022/10/23 09:08:25;;;;;;;2.45;0.60;;;15.70;99.90;;;;;;5067722;28;20164;-86
2022/10/23 09:11:10;;;;;;;1.90;1.07;;;15.90;99.90;;;;;;5077327;28;20037;-86
2022/10/23 09:13:46;;;;;;;1.02;0.70;;;16.10;99.90;;;;;;5081801;28;20052;-86
2022/10/23 09:16:27;;;;;;;4.93;0.90;;;16.30;99.90;;;;;;5063090;28;20052;-86
2022/10/23 09:19:48;;;;;;;2.15;0.90;;;16.50;99.90;;;;;;5071000;28;20020;-86
2022/10/23 09:22:14;;;;;;;1.00;0.68;;;16.50;99.90;;;;;;5060975;28;20494;-87
2022/10/23 09:24:42;;;;;;;2.15;0.70;;;16.50;99.90;;;;;;5072378;28;20040;-87
2022/10/23 09:27:13;;;;;;;2.45;0.90;;;16.50;99.90;;;;;;5065541;28;20055;-87
2022/10/23 09:29:47;;;;;;;2.33;1.10;;;16.50;99.90;;;;;;5072552;28;20029;-86
2022/10/23 09:32:13;;;;;;;4.80;0.80;;;16.80;99.90;;;;;;5066574;28;20376;-88
2022/10/23 09:34:51;;;;;;;1.25;0.75;;;17.00;99.90;;;;;;5073339;28;20083;-87
2022/10/23 09:37:29;;;;;;;3.42;0.75;;;17.40;99.90;;;;;;5068108;28;20028;-87
2022/10/23 09:40:18;;;;;;;3.35;0.70;;;18.00;99.90;;;;;;5078811;28;20133;-87
2022/10/23 09:42:56;;;;;;;1.95;0.60;;;18.10;99.90;;;;;;5045629;28;20036;-87
2022/10/23 09:45:41;;;;;;;1.35;0.90;;;18.40;99.90;;;;;;5039852;28;20039;-86
2022/10/23 09:48:17;;;;;;;3.00;0.90;;;18.90;99.90;;;;;;5045611;28;20021;-87
2022/10/23 09:50:52;;;;;;;4.88;1.13;;;18.90;99.90;;;;;;5070924;28;20025;-86
2022/10/23 09:53:28;;;;;;;2.10;1.30;;;18.60;99.90;;;;;;5055142;28;20386;-87
2022/10/23 09:55:55;;;;;;;2.85;0.88;;;18.70;99.90;;;;;;5064314;28;20529;-87
2022/10/23 09:58:52;;;;;;;1.08;0.80;;;19.30;99.90;;;;;;5054507;28;20040;-87
2022/10/23 10:01:51;;;;;;;2.70;0.90;;;18.80;99.90;;;;;;5066478;28;20708;-87
2022/10/23 10:04:40;;;;;;;0.93;0.80;;;19.10;99.90;;;;;;5071909;28;20048;-86
2022/10/23 10:07:21;;;;;;;3.38;0.85;;;19.20;99.90;;;;;;5054722;28;20068;-88
2022/10/23 10:09:47;;;;;;;4.47;0.80;;;19.40;99.90;;;;;;5052638;28;20035;-86
2022/10/23 10:12:20;;;;;;;2.72;0.80;;;19.60;99.90;;;;;;5049640;28;20531;-87
2022/10/23 10:15:18;;;;;;;2.75;1.17;;;19.70;99.90;;;;;;5055053;28;20021;-87
2022/10/23 10:18:21;;;;;;;1.38;0.90;;;19.40;99.90;;;;;;5035751;28;20110;-86
2022/10/23 10:21:17;;;;;;;2.17;1.20;;;19.00;99.90;;;;;;5067477;28;20064;-86
2022/10/23 10:23:54;;;;;;;1.13;1.00;;;19.10;99.90;;;;;;5040181;28;20033;-87
2022/10/23 10:26:43;;;;;;;2.05;1.10;;;19.30;99.90;;;;;;5059316;28;20074;-87
2022/10/23 10:29:30;;;;;;;5.65;0.90;;;19.10;99.90;;;;;;5067133;28;20033;-86
2022/10/23 10:32:30;;;;;;;1.95;1.40;;;18.90;99.90;;;;;;5057810;28;20123;-86
2022/10/23 10:35:16;;;;;;;4.38;1.60;;;18.70;99.90;;;;;;5056718;28;20384;-87
2022/10/23 10:38:17;;;;;;;2.65;1.25;;;18.40;99.90;;;;;;5051374;28;20033;-87
2022/10/23 10:41:29;;;;;;;2.70;1.10;;;18.30;99.90;;;;;;5035797;28;20044;-87
2022/10/23 10:44:17;;;;;;;2.70;1.20;;;18.60;99.90;;;;;;5073320;28;20032;-86
2022/10/23 10:47:02;;;;;;;3.20;1.30;;;18.70;99.90;;;;;;5054971;28;20170;-86
2022/10/23 10:49:53;;;;;;;5.88;1.30;;;18.50;99.90;;;;;;5065367;28;20031;-87
2022/10/23 10:53:13;;;;;;;2.25;0.90;;;18.10;99.90;;;;;;5069870;28;20032;-87
2022/10/23 10:56:32;;;;;;;4.18;1.10;;;17.90;99.90;;;;;;5075475;28;20040;-87
2022/10/23 10:59:23;;;;;;;5.72;1.02;;;17.70;99.90;;;;;;5066447;28;20032;-87
2022/10/23 11:01:53;;;;;;;3.67;0.82;;;17.80;99.90;;;;;;5065486;28;20097;-88
2022/10/23 11:04:32;;;;;;;5.30;1.42;;;17.90;99.90;;;;;;5075930;28;20033;-85
2022/10/23 11:07:04;;;;;;;1.88;1.65;;;18.30;99.90;;;;;;5075552;28;20032;-85
2022/10/23 11:09:30;;;;;;;5.20;1.00;;;18.60;99.90;;;;;;5076900;28;20448;-85
2022/10/23 11:11:57;;;;;;;1.50;1.10;;;18.60;99.90;;;;;;5063506;28;20028;-85
2022/10/23 11:14:25;;;;;;;5.35;1.80;;;18.30;99.90;;;;;;5065054;28;20028;-85
2022/10/23 11:17:01;;;;;;;4.43;1.10;;;18.10;99.90;;;;;;5078446;28;20112;-86
2022/10/23 11:19:41;;;;;;;2.10;0.90;;;18.10;99.90;;;;;;5082434;28;20123;-86
2022/10/23 11:22:22;;;;;;;3.40;1.10;;;18.30;99.90;;;;;;5058865;28;20035;-86
2022/10/23 11:25:03;;;;;;;7.43;1.20;;;18.40;99.90;;;;;;5066609;28;20439;-86
2022/10/23 11:27:54;;;;;;;;;;;18.80;99.90;;;;;;5069534;28;20542;-85
2022/10/23 11:30:22;;;;;;;4.47;1.02;;;19.40;99.90;;;;;;5064645;28;20012;-85
2022/10/23 11:33:26;;;;;;;5.25;1.00;;;20.00;99.90;;;;;;5062200;28;20479;-87
2022/10/23 11:36:19;;;;;;;3.13;1.13;;;20.60;99.90;;;;;;5089199;28;20033;-86
2022/10/23 11:39:31;;;;;;;2.40;0.90;;;19.80;99.90;;;;;;5066955;28;20468;-86
2022/10/23 11:42:01;;;;;;;1.95;0.90;;;19.30;99.90;;;;;;5067926;28;20496;-86
2022/10/23 11:44:44;;;;;;;3.58;0.80;;;19.30;99.90;;;;;;5064867;28;20113;-86
2022/10/23 11:47:25;;;;;;;1.58;0.90;;;19.60;99.90;;;;;;5052298;28;20021;-85
2022/10/23 11:50:03;;;;;;;7.47;1.02;;;19.30;99.90;;;;;;5057749;28;20388;-86
2022/10/23 11:52:28;;;;;;;7.65;0.85;;;19.10;99.90;;;;;;5055988;28;20028;-86
2022/10/23 11:58:41;;;;;;;3.00;0.95;;;18.70;99.90;;;;;;5059503;28;20078;-86
2022/10/23 12:01:18;;;;;;;3.00;1.05;;;18.60;99.90;;;;;;5056591;28;20033;-85
2022/10/23 12:03:56;;;;;;;3.50;0.95;;;18.40;99.90;;;;;;5061666;28;20064;-86
2022/10/23 12:06:27;;;;;;;6.60;1.10;;;18.40;99.90;;;;;;5067257;28;20035;-85
2022/10/23 12:09:00;;;;;;;1.85;0.82;;;18.60;99.90;;;;;;5049179;28;20039;-86
2022/10/23 12:11:45;;;;;;;3.63;1.25;;;18.60;99.90;;;;;;5070264;28;20028;-86
2022/10/23 12:14:34;;;;;;;3.78;1.00;;;18.50;99.90;;;;;;5060764;28;20403;-86
2022/10/23 12:17:01;;;;;;;1.08;0.88;;;18.60;99.90;;;;;;5044748;28;20028;-86
2022/10/23 12:19:29;;;;;;;1.20;0.80;;;18.90;99.90;;;;;;5055298;28;20055;-87
2022/10/23 12:22:00;;;;;;;2.78;0.80;;;19.50;99.90;;;;;;5059043;28;20039;-87
2022/10/23 12:24:30;;;;;;;1.48;0.80;;;20.20;99.90;;;;;;5057461;28;20033;-87
2022/10/23 12:27:11;;;;;;;3.45;1.00;;;20.60;99.90;;;;;;5059780;28;20025;-87
2022/10/23 12:30:01;;;;;;;5.00;1.00;;;20.40;99.90;;;;;;5088008;28;20178;-86
2022/10/23 12:32:33;;;;;;;5.28;0.90;;;20.00;99.90;;;;;;5038482;28;20439;-86
2022/10/23 12:35:17;;;;;;;4.35;0.88;;;19.40;99.90;;;;;;5078070;28;20025;-86
2022/10/23 12:38:09;;;;;;;1.85;0.90;;;19.00;99.90;;;;;;5044161;28;20115;-87
2022/10/23 12:40:35;;;;;;;5.82;1.05;;;18.80;99.90;;;;;;5047233;28;20031;-87
2022/10/23 12:43:01;;;;;;;1.80;0.90;;;18.60;99.90;;;;;;5049818;28;20034;-87
2022/10/23 12:45:39;;;;;;;7.10;1.23;;;18.40;99.90;;;;;;5054391;28;20074;-87
2022/10/23 12:48:05;;;;;;;5.18;1.10;;;18.40;99.90;;;;;;5061780;28;20025;-88
2022/10/23 12:50:32;;;;;;;3.90;1.23;;;18.40;99.90;;;;;;5067237;28;20034;-87
2022/10/23 12:53:02;;;;;;;5.70;1.30;;;18.60;99.90;;;;;;5049706;28;20021;-88
2022/10/23 12:59:00;;;;;;;4.65;2.08;;;19.30;99.90;;;;;;5060257;28;20040;-87
2022/10/23 13:01:29;;;;;;;6.25;1.58;;;19.60;99.90;;;;;;5054427;28;20032;-87
2022/10/23 13:04:15;;;;;;;3.55;1.45;;;19.40;99.90;;;;;;5071643;28;20463;-88
2022/10/23 13:06:41;;;;;;;5.05;1.10;;;19.10;99.90;;;;;;5040483;28;20041;-89
2022/10/23 13:09:38;;;;;;;2.95;1.42;;;19.00;99.90;;;;;;5043755;28;20020;-87
2022/10/23 13:12:30;;;;;;;2.17;1.60;;;19.00;99.90;;;;;;5057731;28;20028;-87
2022/10/23 13:15:18;;;;;;;1.73;1.20;;;18.80;99.90;;;;;;5061980;28;20020;-86
2022/10/23 13:17:43;;;;;;;4.70;1.33;;;18.70;99.90;;;;;;5046669;28;20082;-88
2022/10/23 13:20:27;;;;;;;3.88;1.30;;;18.60;99.90;;;;;;5068193;28;20115;-87
2022/10/23 13:23:24;;;;;;;3.20;1.00;;;18.50;99.90;;;;;;5043839;28;20027;-87
2022/10/23 13:26:16;;;;;;;2.13;0.93;;;18.40;99.90;;;;;;5089321;28;20071;-87
2022/10/23 13:28:49;;;;;;;1.60;1.02;;;18.40;99.90;;;;;;5047634;28;20032;-88
2022/10/23 13:31:14;;;;;;;4.70;1.15;;;18.40;99.90;;;;;;5049481;28;20028;-87
2022/10/23 13:34:01;;;;;;;3.47;1.27;;;18.40;99.90;;;;;;5064174;28;20024;-88
2022/10/23 13:36:30;;;;;;;7.63;1.13;;;18.40;99.90;;;;;;5039242;28;20021;-88
2022/10/23 13:38:59;;;;;;;2.33;1.58;;;18.40;99.90;;;;;;5040660;28;20021;-88
2022/10/23 13:41:50;;;;;;;5.75;1.00;;;18.40;99.90;;;;;;5056944;28;20025;-87